(°C)
19°
19°
19°
17°
16°
15°
14°
(°C)
12°
12°
12°
11°
10°
აღმ.
აღმ.
აღმ.
აღმ.
აღმ.
აღმ.
ასა
(კმ/სთ)
27-39
26-39
24-37
22-28
20-27
22-28
24-34
(მმ)
0
0
0
0
0
0
0
(%)
0
0
0
6
6
20
27

მზის სიმაღლე

/ 22.7°
sun-icon
UV 2
07:20
19:31
კლებადი მთვარე (220°)
20:53
10:51

METAR 51.15°ჩრ. 51.54°აღმ. (UARR)-თვის

დრო პირობები ტემპერატურა/
ნამი
ქარი ხილვადობა ამინდი ღრუბლები წნევა ცვლილება დაუმუშავებელი
VFR 20°C / -2°C 140º 16kt >10km - Scattered Clouds 3300ft 1012 No Significant change UARR 241130Z 14008MPS 9999 SCT033 20/M02 Q1012 R04/CLRD70 NOSIG RMK QFE756/1008
VFR 19°C / 0°C 110º 16kt >10km - Clouds and Visibility OK 1012 No Significant change UARR 241100Z 11008MPS CAVOK 19/M00 Q1012 R04/CLRD70 NOSIG RMK QFE756/1008
VFR 19°C / 0°C 100º 16kt >10km - Clouds and Visibility OK 1013 No Significant change UARR 241030Z 10008MPS CAVOK 19/M00 Q1013 R04/CLRD70 NOSIG RMK QFE756/1008
VFR 18°C / 0°C 110º 17kt >10km - Clouds and Visibility OK 1013 No Significant change UARR 241000Z 11009MPS CAVOK 18/00 Q1013 R04/CLRD70 NOSIG RMK QFE756/1008
VFR 18°C / 0°C 120º 16kt >10km - Clouds and Visibility OK 1013 No Significant change UARR 240930Z 12008MPS CAVOK 18/M00 Q1013 R04/CLRD70 NOSIG RMK QFE756/1009
VFR 18°C / 1°C 110º 16kt >10km - Clouds and Visibility OK 1014 No Significant change UARR 240900Z 11008MPS CAVOK 18/01 Q1014 R04/CLRD70 NOSIG RMK QFE757/1009
VFR 17°C / 1°C 110º 16kt >10km - Clouds and Visibility OK 1014 No Significant change UARR 240830Z 11008MPS CAVOK 17/01 Q1014 R04/CLRD70 NOSIG RMK QFE757/1010
VFR 16°C / 1°C 110º 14kt >10km - Clouds and Visibility OK 1015 No Significant change UARR 240800Z 11007MPS CAVOK 16/01 Q1015 R04/CLRD70 NOSIG RMK QFE757/1010
VFR 16°C / 1°C 120º 16kt >10km - Clouds and Visibility OK 1015 No Significant change UARR 240730Z 12008MPS CAVOK 16/01 Q1015 R04/CLRD70 NOSIG RMK QFE758/1010
VFR 15°C / 2°C 120º 16kt Gust 25kt >10km - Clouds and Visibility OK 1015 No Significant change UARR 240700Z 12008G13MPS CAVOK 15/02 Q1015 R04/CLRD70 NOSIG RMK QFE758/1010
VFR 15°C / 1°C 120º 17kt >10km - Clouds and Visibility OK 1015 No Significant change UARR 240630Z 12009MPS CAVOK 15/01 Q1015 R04/CLRD70 NOSIG RMK QFE758/1011
VFR 14°C / 2°C 120º 17kt >10km - Clouds and Visibility OK 1015 No Significant change UARR 240600Z 12009MPS CAVOK 14/02 Q1015 R04/CLRD70 NOSIG RMK QFE758/1011
VFR 14°C / 1°C 120º 19kt >10km - Scattered Clouds 5000ft 1015 No Significant change UARR 240530Z 12010MPS 9999 SCT050CB 14/01 Q1015 R04/CLRD70 NOSIG RMK QFE758/1011
VFR 13°C / 1°C 120º 17kt >10km - Scattered Clouds 5000ft 1015 No Significant change UARR 240500Z 12009MPS 9999 SCT050CB 13/01 Q1015 R04/CLRD70 NOSIG RMK QFE758/1011
VFR 13°C / 1°C 130º 17kt >10km - Scattered Clouds 5000ft 1016 No Significant change UARR 240430Z 13009MPS 9999 SCT050CB 13/01 Q1016 R04/CLRD70 NOSIG RMK QFE758/1011
VFR 13°C / 1°C 130º 16kt >10km - Scattered Clouds 5000ft 1015 No Significant change UARR 240400Z 13008MPS 9999 SCT050CB 13/01 Q1015 R04/CLRD70 NOSIG RMK QFE758/1011
VFR 13°C / 2°C 120º 14kt >10km - Scattered Clouds 5000ft 1015 No Significant change. Runway 04: Wet or puddles, 51-100% contamination with <1mm, friction coefficient 0.60. UARR 240330Z 12007MPS 9999 SCT050CB 13/02 Q1015 R04/290060 NOSIG RMK QFE758/1011
VFR 12°C / 4°C 110º 16kt >10km - Scattered Clouds 5000ft 1015 No Significant change UARR 240300Z 11008MPS 9999 SCT050CB 12/04 Q1015 R04/CLRD70 NOSIG RMK QFE758/1010
VFR 13°C / 2°C 120º 19kt >10km - Clouds and Visibility OK 1015 No Significant change UARR 240230Z 12010MPS CAVOK 13/02 Q1015 R04/CLRD70 NOSIG RMK QFE758/1010
VFR 12°C / 2°C 120º 19kt >10km - Clouds and Visibility OK 1015 Temporary: 13015G20MPS RMK QFE758/1010 UARR 240200Z 12010MPS CAVOK 12/02 Q1015 R04/CLRD70 TEMPO 13015G20MPS RMK QFE758/1010
VFR 13°C / 3°C 120º 19kt >10km - Clouds and Visibility OK 1015 Temporary: 13015G20MPS RMK QFE758/1011 UARR 240130Z 12010MPS CAVOK 13/03 Q1015 R04/CLRD70 TEMPO 13015G20MPS RMK QFE758/1011
VFR 12°C / 3°C 120º 17kt >10km - Clouds and Visibility OK 1015 Temporary: 13015G20MPS RMK QFE758/1011 UARR 240100Z 12009MPS CAVOK 12/03 Q1015 R04/CLRD70 TEMPO 13015G20MPS RMK QFE758/1011
VFR 14°C / 2°C 120º 21kt >10km - Clouds and Visibility OK 1016 Temporary: 13015G20MPS RMK QFE758/1011 UARR 240030Z 12011MPS CAVOK 14/02 Q1016 R04/CLRD70 TEMPO 13015G20MPS RMK QFE758/1011
VFR 14°C / 2°C 120º 21kt >10km - Clouds and Visibility OK 1015 Temporary: 13015G20MPS RMK QFE758/1011 UARR 240023Z 12011MPS CAVOK 14/02 Q1015 R04/CLRD70 TEMPO 13015G20MPS RMK QFE758/1011

VFR

20°C / -2°C

[მეტი]
ქარი 140º 16kt
ხილვადობა >10km
ამინდი -
ღრუბლები Scattered Clouds 3300ft
წნევა 1012
ცვლილება No Significant change
დაუმუშავებელი UARR 241130Z 14008MPS 9999 SCT033 20/M02 Q1012 R04/CLRD70 NOSIG RMK QFE756/1008

VFR

19°C / 0°C

[მეტი]
ქარი 110º 16kt
ხილვადობა >10km
ამინდი -
ღრუბლები Clouds and Visibility OK
წნევა 1012
ცვლილება No Significant change
დაუმუშავებელი UARR 241100Z 11008MPS CAVOK 19/M00 Q1012 R04/CLRD70 NOSIG RMK QFE756/1008

VFR

19°C / 0°C

[მეტი]
ქარი 100º 16kt
ხილვადობა >10km
ამინდი -
ღრუბლები Clouds and Visibility OK
წნევა 1013
ცვლილება No Significant change
დაუმუშავებელი UARR 241030Z 10008MPS CAVOK 19/M00 Q1013 R04/CLRD70 NOSIG RMK QFE756/1008

VFR

18°C / 0°C

[მეტი]
ქარი 110º 17kt
ხილვადობა >10km
ამინდი -
ღრუბლები Clouds and Visibility OK
წნევა 1013
ცვლილება No Significant change
დაუმუშავებელი UARR 241000Z 11009MPS CAVOK 18/00 Q1013 R04/CLRD70 NOSIG RMK QFE756/1008

VFR

18°C / 0°C

[მეტი]
ქარი 120º 16kt
ხილვადობა >10km
ამინდი -
ღრუბლები Clouds and Visibility OK
წნევა 1013
ცვლილება No Significant change
დაუმუშავებელი UARR 240930Z 12008MPS CAVOK 18/M00 Q1013 R04/CLRD70 NOSIG RMK QFE756/1009

VFR

18°C / 1°C

[მეტი]
ქარი 110º 16kt
ხილვადობა >10km
ამინდი -
ღრუბლები Clouds and Visibility OK
წნევა 1014
ცვლილება No Significant change
დაუმუშავებელი UARR 240900Z 11008MPS CAVOK 18/01 Q1014 R04/CLRD70 NOSIG RMK QFE757/1009

VFR

17°C / 1°C

[მეტი]
ქარი 110º 16kt
ხილვადობა >10km
ამინდი -
ღრუბლები Clouds and Visibility OK
წნევა 1014
ცვლილება No Significant change
დაუმუშავებელი UARR 240830Z 11008MPS CAVOK 17/01 Q1014 R04/CLRD70 NOSIG RMK QFE757/1010

VFR

16°C / 1°C

[მეტი]
ქარი 110º 14kt
ხილვადობა >10km
ამინდი -
ღრუბლები Clouds and Visibility OK
წნევა 1015
ცვლილება No Significant change
დაუმუშავებელი UARR 240800Z 11007MPS CAVOK 16/01 Q1015 R04/CLRD70 NOSIG RMK QFE757/1010

VFR

16°C / 1°C

[მეტი]
ქარი 120º 16kt
ხილვადობა >10km
ამინდი -
ღრუბლები Clouds and Visibility OK
წნევა 1015
ცვლილება No Significant change
დაუმუშავებელი UARR 240730Z 12008MPS CAVOK 16/01 Q1015 R04/CLRD70 NOSIG RMK QFE758/1010

VFR

15°C / 2°C

[მეტი]
ქარი 120º 16kt Gust 25kt
ხილვადობა >10km
ამინდი -
ღრუბლები Clouds and Visibility OK
წნევა 1015
ცვლილება No Significant change
დაუმუშავებელი UARR 240700Z 12008G13MPS CAVOK 15/02 Q1015 R04/CLRD70 NOSIG RMK QFE758/1010

VFR

15°C / 1°C

[მეტი]
ქარი 120º 17kt
ხილვადობა >10km
ამინდი -
ღრუბლები Clouds and Visibility OK
წნევა 1015
ცვლილება No Significant change
დაუმუშავებელი UARR 240630Z 12009MPS CAVOK 15/01 Q1015 R04/CLRD70 NOSIG RMK QFE758/1011

VFR

14°C / 2°C

[მეტი]
ქარი 120º 17kt
ხილვადობა >10km
ამინდი -
ღრუბლები Clouds and Visibility OK
წნევა 1015
ცვლილება No Significant change
დაუმუშავებელი UARR 240600Z 12009MPS CAVOK 14/02 Q1015 R04/CLRD70 NOSIG RMK QFE758/1011

VFR

14°C / 1°C

[მეტი]
ქარი 120º 19kt
ხილვადობა >10km
ამინდი -
ღრუბლები Scattered Clouds 5000ft
წნევა 1015
ცვლილება No Significant change
დაუმუშავებელი UARR 240530Z 12010MPS 9999 SCT050CB 14/01 Q1015 R04/CLRD70 NOSIG RMK QFE758/1011

VFR

13°C / 1°C

[მეტი]
ქარი 120º 17kt
ხილვადობა >10km
ამინდი -
ღრუბლები Scattered Clouds 5000ft
წნევა 1015
ცვლილება No Significant change
დაუმუშავებელი UARR 240500Z 12009MPS 9999 SCT050CB 13/01 Q1015 R04/CLRD70 NOSIG RMK QFE758/1011

VFR

13°C / 1°C

[მეტი]
ქარი 130º 17kt
ხილვადობა >10km
ამინდი -
ღრუბლები Scattered Clouds 5000ft
წნევა 1016
ცვლილება No Significant change
დაუმუშავებელი UARR 240430Z 13009MPS 9999 SCT050CB 13/01 Q1016 R04/CLRD70 NOSIG RMK QFE758/1011

VFR

13°C / 1°C

[მეტი]
ქარი 130º 16kt
ხილვადობა >10km
ამინდი -
ღრუბლები Scattered Clouds 5000ft
წნევა 1015
ცვლილება No Significant change
დაუმუშავებელი UARR 240400Z 13008MPS 9999 SCT050CB 13/01 Q1015 R04/CLRD70 NOSIG RMK QFE758/1011

VFR

13°C / 2°C

[მეტი]
ქარი 120º 14kt
ხილვადობა >10km
ამინდი -
ღრუბლები Scattered Clouds 5000ft
წნევა 1015
ცვლილება No Significant change. Runway 04: Wet or puddles, 51-100% contamination with <1mm, friction coefficient 0.60.
დაუმუშავებელი UARR 240330Z 12007MPS 9999 SCT050CB 13/02 Q1015 R04/290060 NOSIG RMK QFE758/1011

VFR

12°C / 4°C

[მეტი]
ქარი 110º 16kt
ხილვადობა >10km
ამინდი -
ღრუბლები Scattered Clouds 5000ft
წნევა 1015
ცვლილება No Significant change
დაუმუშავებელი UARR 240300Z 11008MPS 9999 SCT050CB 12/04 Q1015 R04/CLRD70 NOSIG RMK QFE758/1010

VFR

13°C / 2°C

[მეტი]
ქარი 120º 19kt
ხილვადობა >10km
ამინდი -
ღრუბლები Clouds and Visibility OK
წნევა 1015
ცვლილება No Significant change
დაუმუშავებელი UARR 240230Z 12010MPS CAVOK 13/02 Q1015 R04/CLRD70 NOSIG RMK QFE758/1010

VFR

12°C / 2°C

[მეტი]
ქარი 120º 19kt
ხილვადობა >10km
ამინდი -
ღრუბლები Clouds and Visibility OK
წნევა 1015
ცვლილება Temporary: 13015G20MPS RMK QFE758/1010
დაუმუშავებელი UARR 240200Z 12010MPS CAVOK 12/02 Q1015 R04/CLRD70 TEMPO 13015G20MPS RMK QFE758/1010

VFR

13°C / 3°C

[მეტი]
ქარი 120º 19kt
ხილვადობა >10km
ამინდი -
ღრუბლები Clouds and Visibility OK
წნევა 1015
ცვლილება Temporary: 13015G20MPS RMK QFE758/1011
დაუმუშავებელი UARR 240130Z 12010MPS CAVOK 13/03 Q1015 R04/CLRD70 TEMPO 13015G20MPS RMK QFE758/1011

VFR

12°C / 3°C

[მეტი]
ქარი 120º 17kt
ხილვადობა >10km
ამინდი -
ღრუბლები Clouds and Visibility OK
წნევა 1015
ცვლილება Temporary: 13015G20MPS RMK QFE758/1011
დაუმუშავებელი UARR 240100Z 12009MPS CAVOK 12/03 Q1015 R04/CLRD70 TEMPO 13015G20MPS RMK QFE758/1011

VFR

14°C / 2°C

[მეტი]
ქარი 120º 21kt
ხილვადობა >10km
ამინდი -
ღრუბლები Clouds and Visibility OK
წნევა 1016
ცვლილება Temporary: 13015G20MPS RMK QFE758/1011
დაუმუშავებელი UARR 240030Z 12011MPS CAVOK 14/02 Q1016 R04/CLRD70 TEMPO 13015G20MPS RMK QFE758/1011

VFR

14°C / 2°C

[მეტი]
ქარი 120º 21kt
ხილვადობა >10km
ამინდი -
ღრუბლები Clouds and Visibility OK
წნევა 1015
ცვლილება Temporary: 13015G20MPS RMK QFE758/1011
დაუმუშავებელი UARR 240023Z 12011MPS CAVOK 14/02 Q1015 R04/CLRD70 TEMPO 13015G20MPS RMK QFE758/1011

TAF 51.15°ჩრ. 51.54°აღმ. (UARR)-თვის

From till


From till Wind 130º 19kt. Gust 33kt. Visibility 10km or more. Broken Clouds 3300ft.
Temporarly from till Wind 100º 17kt. Gust 29kt.
Temporarly from till Light Showers Rain .

დაუმუშავებელი: TAF UARR 241101Z 2412/2421 13010G17MPS 9999 BKN033CB TEMPO 2412/2415 10009G15MPS TEMPO 2415/2421 -SHRA

მიმდინარე სატელიტისა და წვიმის სურათები 51.15°ჩრ. 51.54°აღმ.-თვის

ლოკაციის მარკერი დაყენებყლია 51.15°ჩრ. 51.54°აღმ.ზე. [მეტი]

რეალურ დროში სატელიტური სურათი აერთიანებს ხილულ სინათლეს დღისით ღამის განმავლობაში ინფრაწითელ გამოსხივებასთან ერთად. ღამით, სურათი არ არის მუქი, რადგან ინფრაწითელ გამოსხივებას შეუძლია ტემპერატურის განსხვავებების დადგენა. სამწუხაროდ, დაბალი ღრუბლები და ნისლი ძნელია განასხვავონ მიწის ტემპერატურისგან და, შესაბამისად, ისინი შეიძლება თითქმის არ ჩანდეს ღამით. Meteosat სატელიტური გამოსახულება ევროპისთვის ახლდება რეალურ დროში ყოველ 5 წუთში. GOES-16/GOES-17 (ჩრდილოეთი და სამხრეთ ამერიკა) და ჰიმავარი (აზია) გამოსახულებები ახლდება ყოველ 10 წუთში.

საავტორო უფლებები 2021 EUMETSAT / meteoblue. / საავტორო უფლებები 2021 meteoblue

რადარის და ნალექების მაჩვენებელი 51.15°ჩრ. 51.54°აღმ. -თვის

გაწურეთ
Მსუბუქი
ზომიერი
Მძიმე
Ძალიან მძიმე
სეტყვა

მდებარეობის მარკერი მოთავსებულია 51.15°ჩრ. 51.54°აღმ. -ზე. ეს ანიმაცია აჩვენებს ნალექების სარადარო მონაცემებს როგორც ბოლო საათის განმავლობაში, ასევე 1h პროგნოზს. წვიმა ან თოვლის მსუბუქი ვარდნა შეიძლება უჩინარი იყოს რადარისთვის. ნალექების ინტენსივობა არის კოდირებული ფერით, დაწყებული ღია ლურჯიდან ნარინჯისფერამდე.